Time;durP1;ratioP1;P1;durP2;ratioP2;P2;SDS_P1;SDS_P2;PMS_P1;PMS_P2;Temp;Humidity;BMP_temperature;BMP_pressure;BME280_temperature;BME280_humidity;BME280_pressure;Samples;Min_cycle;Max_cycle;Signal;HPM_P1;HPM_P2
2021/05/08 00:00:39;;;;;;;5.75;3.90;;;16.60;80.80;;;;;;4972866;28;96104;-50
2021/05/08 00:03:12;;;;;;;5.78;4.38;;;16.60;80.70;;;;;;4979844;28;95337;-51
2021/05/08 00:05:43;;;;;;;5.15;3.83;;;16.70;80.60;;;;;;4978562;28;95799;-53
2021/05/08 00:08:13;;;;;;;4.80;3.35;;;16.70;80.60;;;;;;4970671;28;95909;-50
2021/05/08 00:10:44;;;;;;;5.57;3.35;;;16.70;80.50;;;;;;4973831;28;95364;-51
2021/05/08 00:13:15;;;;;;;5.18;4.05;;;16.70;80.40;;;;;;4977530;28;95759;-52
2021/05/08 00:15:47;;;;;;;5.43;3.67;;;16.70;80.40;;;;;;4976871;28;95897;-53
2021/05/08 00:18:18;;;;;;;5.80;4.00;;;16.70;80.30;;;;;;4978731;28;96059;-53
2021/05/08 00:20:48;;;;;;;6.07;3.78;;;16.70;80.20;;;;;;4969486;28;95773;-53
2021/05/08 00:23:19;;;;;;;3.97;2.97;;;16.70;80.20;;;;;;4971642;28;102425;-53
2021/05/08 00:25:49;;;;;;;7.68;4.43;;;16.80;80.20;;;;;;4967467;28;95565;-51
2021/05/08 00:28:20;;;;;;;6.25;3.30;;;16.80;80.00;;;;;;4970929;28;96873;-53
2021/05/08 00:30:50;;;;;;;5.32;3.60;;;16.80;80.00;;;;;;4969694;28;95805;-53
2021/05/08 00:33:19;;;;;;;4.80;3.25;;;16.80;79.90;;;;;;4961344;28;95972;-52
2021/05/08 00:35:50;;;;;;;4.93;3.35;;;16.80;80.00;;;;;;4978939;28;96497;-52
2021/05/08 00:38:21;;;;;;;;;;;16.80;79.90;;;;;;4966751;28;96387;-50
2021/05/08 00:40:51;;;;;;;4.27;3.20;;;16.80;79.80;;;;;;4983053;28;95865;-53
2021/05/08 00:43:22;;;;;;;7.15;3.20;;;16.80;79.80;;;;;;4960855;28;96070;-50
2021/05/08 00:45:53;;;;;;;4.80;3.25;;;16.90;79.80;;;;;;4969766;28;95428;-52
2021/05/08 00:48:24;;;;;;;4.07;3.10;;;16.90;79.70;;;;;;4966062;28;96714;-51
2021/05/08 00:50:57;;;;;;;5.40;3.67;;;16.90;79.60;;;;;;4966177;28;97367;-54
2021/05/08 00:53:28;;;;;;;4.13;2.72;;;16.90;79.60;;;;;;4967350;28;96271;-51
2021/05/08 00:55:59;;;;;;;4.78;2.80;;;16.90;79.40;;;;;;4966206;28;95695;-52
2021/05/08 00:58:31;;;;;;;4.32;3.00;;;16.90;79.50;;;;;;4961818;28;96198;-52
2021/05/08 01:01:02;;;;;;;5.22;2.80;;;17.00;79.50;;;;;;4967109;28;96012;-51
2021/05/08 01:03:33;;;;;;;3.38;2.60;;;17.00;79.60;;;;;;4987597;28;95575;-52
2021/05/08 01:06:04;;;;;;;3.97;3.35;;;17.00;79.40;;;;;;4967779;28;95886;-49
2021/05/08 01:08:34;;;;;;;4.43;2.45;;;17.00;79.40;;;;;;4986942;28;96769;-50
2021/05/08 01:11:05;;;;;;;7.75;4.18;;;17.00;79.30;;;;;;4963761;28;97843;-52
2021/05/08 01:13:37;;;;;;;4.20;3.10;;;17.00;79.30;;;;;;4970391;28;96002;-50
2021/05/08 01:16:10;;;;;;;3.95;2.75;;;17.10;79.20;;;;;;4960019;28;96007;-51
2021/05/08 01:18:41;;;;;;;4.07;2.72;;;17.10;79.20;;;;;;4964682;28;96088;-51
2021/05/08 01:21:15;;;;;;;3.53;2.60;;;17.10;79.10;;;;;;4979986;28;95517;-52
2021/05/08 01:23:46;;;;;;;4.38;2.67;;;17.10;79.10;;;;;;4977197;28;95899;-50
2021/05/08 01:26:17;;;;;;;5.35;2.72;;;17.10;79.10;;;;;;4966193;28;95808;-53
2021/05/08 01:28:48;;;;;;;3.08;2.70;;;17.10;79.20;;;;;;4998780;28;98138;-53
2021/05/08 01:31:17;;;;;;;5.40;3.15;;;17.10;79.20;;;;;;4969371;28;96138;-52
2021/05/08 01:33:48;;;;;;;;;;;17.20;79.20;;;;;;4972945;28;95593;-51
2021/05/08 01:36:25;;;;;;;4.57;2.45;;;17.20;79.20;;;;;;4979051;28;95611;-51
2021/05/08 01:38:56;;;;;;;5.43;2.80;;;17.20;79.20;;;;;;4967680;28;98343;-51
2021/05/08 01:41:26;;;;;;;4.30;3.47;;;17.30;79.20;;;;;;4976043;28;95679;-53
2021/05/08 01:43:58;;;;;;;3.58;2.80;;;17.30;79.20;;;;;;4983737;28;95928;-52
2021/05/08 01:46:29;;;;;;;3.97;2.70;;;17.30;79.10;;;;;;4964102;28;95692;-55
2021/05/08 01:49:03;;;;;;;4.53;2.92;;;17.40;79.30;;;;;;4988484;28;96510;-51
2021/05/08 01:51:35;;;;;;;3.50;2.80;;;17.40;79.10;;;;;;4988335;28;102637;-51
2021/05/08 01:54:05;;;;;;;4.40;3.10;;;17.40;79.00;;;;;;4970475;28;95606;-49
2021/05/08 01:56:38;;;;;;;4.45;3.05;;;17.50;79.00;;;;;;4985704;28;95629;-49
2021/05/08 01:59:14;;;;;;;3.60;2.65;;;17.50;78.90;;;;;;4974059;28;95871;-48
2021/05/08 02:01:46;;;;;;;5.90;2.65;;;17.60;78.90;;;;;;4966271;28;95774;-52
2021/05/08 02:04:17;;;;;;;;;;;17.60;78.70;;;;;;4969690;28;95248;-53
2021/05/08 02:06:53;;;;;;;2.97;2.60;;;17.70;78.70;;;;;;4969270;28;95787;-53
2021/05/08 02:09:26;;;;;;;3.08;2.78;;;17.70;78.70;;;;;;4979583;28;95895;-54
2021/05/08 02:12:00;;;;;;;3.55;3.00;;;17.70;78.50;;;;;;4992115;28;97741;-52
2021/05/08 02:14:33;;;;;;;2.70;2.38;;;17.80;78.50;;;;;;4981183;28;95724;-53
2021/05/08 02:17:04;;;;;;;;;;;17.80;78.40;;;;;;4962104;28;96192;-53
2021/05/08 02:19:35;;;;;;;2.85;2.42;;;17.90;78.30;;;;;;4997910;28;98468;-55
2021/05/08 02:22:06;;;;;;;2.40;2.10;;;17.90;78.30;;;;;;4969071;28;95866;-53
2021/05/08 02:24:36;;;;;;;3.95;2.90;;;17.90;78.10;;;;;;4967876;28;95647;-55
2021/05/08 02:27:07;;;;;;;3.88;2.60;;;17.90;78.10;;;;;;4962319;28;101024;-52
2021/05/08 02:29:37;;;;;;;2.72;2.45;;;18.00;78.10;;;;;;4982493;28;98175;-55
2021/05/08 02:32:09;;;;;;;3.15;2.60;;;18.00;78.10;;;;;;4992438;28;96386;-54
2021/05/08 02:34:39;;;;;;;5.03;3.22;;;18.00;78.00;;;;;;4996789;28;95226;-53
2021/05/08 02:37:13;;;;;;;3.20;2.33;;;18.10;78.00;;;;;;4961859;28;95340;-56
2021/05/08 02:39:43;;;;;;;3.03;2.50;;;18.10;77.90;;;;;;4973054;28;96412;-57
2021/05/08 02:42:16;;;;;;;3.67;2.65;;;18.10;77.80;;;;;;4992756;28;96735;-55
2021/05/08 02:44:47;;;;;;;3.50;2.63;;;18.20;77.80;;;;;;4976654;28;95724;-56
2021/05/08 02:47:19;;;;;;;2.10;1.67;;;18.20;77.80;;;;;;4959016;28;95958;-57
2021/05/08 02:49:54;;;;;;;3.65;2.85;;;18.30;77.70;;;;;;4964776;28;98599;-56
2021/05/08 02:52:25;;;;;;;3.03;2.40;;;18.30;77.60;;;;;;4977211;28;101968;-54
2021/05/08 02:54:57;;;;;;;2.63;2.17;;;18.40;77.60;;;;;;4974420;28;95609;-50
2021/05/08 02:57:27;;;;;;;3.53;2.42;;;18.40;78.20;;;;;;4985000;28;95993;-57
2021/05/08 02:59:57;;;;;;;5.10;2.50;;;18.40;77.40;;;;;;4967698;28;98179;-56
2021/05/08 03:02:28;;;;;;;2.70;2.10;;;18.50;77.50;;;;;;4973356;28;95923;-54
2021/05/08 03:05:00;;;;;;;2.33;1.95;;;18.50;77.40;;;;;;4962648;28;95324;-54
2021/05/08 03:07:30;;;;;;;3.42;2.38;;;18.50;77.30;;;;;;4983248;28;96060;-53
2021/05/08 03:10:02;;;;;;;3.85;2.08;;;18.50;77.30;;;;;;4961550;28;98535;-55
2021/05/08 03:12:34;;;;;;;2.80;2.60;;;18.50;77.40;;;;;;4971234;28;95952;-55
2021/05/08 03:15:06;;;;;;;2.33;2.05;;;18.50;77.20;;;;;;4975199;28;96161;-52
2021/05/08 03:17:36;;;;;;;2.08;1.95;;;18.50;77.20;;;;;;4961186;28;95940;-53
2021/05/08 03:20:07;;;;;;;2.95;2.50;;;18.60;77.20;;;;;;4977177;28;95878;-54
2021/05/08 03:22:39;;;;;;;3.60;2.25;;;18.50;77.10;;;;;;4966646;28;95883;-51
2021/05/08 03:25:10;;;;;;;;;;;18.60;77.20;;;;;;4978237;28;95763;-52
2021/05/08 03:27:43;;;;;;;2.58;2.15;;;18.60;77.20;;;;;;4993543;28;96214;-51
2021/05/08 03:30:14;;;;;;;2.88;2.33;;;18.60;77.80;;;;;;4959544;28;98841;-50
2021/05/08 03:32:43;;;;;;;2.90;2.13;;;18.60;77.10;;;;;;4965152;28;102122;-57
2021/05/08 03:35:16;;;;;;;3.20;2.72;;;18.60;77.10;;;;;;4978874;28;95380;-55
2021/05/08 03:37:48;;;;;;;2.80;2.20;;;18.70;77.10;;;;;;4965432;28;95810;-52
2021/05/08 03:40:19;;;;;;;3.28;2.20;;;18.70;77.10;;;;;;4961811;28;96690;-50
2021/05/08 03:42:49;;;;;;;2.45;1.95;;;18.70;77.00;;;;;;4980530;28;95763;-55
2021/05/08 03:45:23;;;;;;;3.40;2.20;;;18.70;77.00;;;;;;4960466;28;97197;-52
2021/05/08 03:47:54;;;;;;;3.00;1.98;;;18.70;76.90;;;;;;4973646;28;95898;-51
2021/05/08 03:50:25;;;;;;;3.00;2.20;;;18.80;76.90;;;;;;4977656;28;99460;-51
2021/05/08 03:52:56;;;;;;;3.13;2.27;;;18.80;76.90;;;;;;4981134;28;95953;-52
2021/05/08 03:55:28;;;;;;;2.67;2.10;;;18.80;76.80;;;;;;4978445;28;96049;-51
2021/05/08 03:57:57;;;;;;;3.42;2.55;;;18.80;76.80;;;;;;4981377;28;95264;-51
2021/05/08 04:00:26;;;;;;;2.42;1.80;;;18.80;76.80;;;;;;4970613;28;95867;-51
2021/05/08 04:02:57;;;;;;;2.63;2.00;;;18.80;76.80;;;;;;4974979;28;101876;-52
2021/05/08 04:05:29;;;;;;;3.85;2.30;;;18.90;76.90;;;;;;4975051;28;96049;-50
2021/05/08 04:07:58;;;;;;;4.07;2.13;;;18.90;76.90;;;;;;4979354;28;95767;-52
2021/05/08 04:10:28;;;;;;;2.13;1.92;;;18.90;77.50;;;;;;4972136;28;96886;-53
2021/05/08 04:13:00;;;;;;;3.70;2.28;;;18.90;76.90;;;;;;4981422;28;95824;-53
2021/05/08 04:15:32;;;;;;;2.33;2.13;;;18.90;76.80;;;;;;4971134;28;95710;-55
2021/05/08 04:18:02;;;;;;;1.90;1.80;;;18.90;76.90;;;;;;4968309;28;95255;-52
2021/05/08 04:20:33;;;;;;;2.05;1.88;;;18.90;76.80;;;;;;4966797;28;95869;-54
2021/05/08 04:23:07;;;;;;;3.40;2.13;;;18.90;76.80;;;;;;4972224;28;95546;-52
2021/05/08 04:25:41;;;;;;;3.15;2.10;;;18.90;76.80;;;;;;4980237;28;96033;-52
2021/05/08 04:28:13;;;;;;;3.33;2.20;;;18.90;76.80;;;;;;4980036;28;96298;-52
2021/05/08 04:30:45;;;;;;;3.53;2.10;;;18.90;76.80;;;;;;4948396;28;98832;-53
2021/05/08 04:33:22;;;;;;;3.10;2.25;;;18.90;77.00;;;;;;4975181;28;96330;-53
2021/05/08 04:35:52;;;;;;;2.03;1.80;;;19.00;76.90;;;;;;4967172;28;95652;-56
2021/05/08 04:38:23;;;;;;;3.55;2.10;;;19.10;76.90;;;;;;4983802;28;95308;-54
2021/05/08 04:40:55;;;;;;;2.33;2.13;;;19.30;76.70;;;;;;4997044;28;96860;-57
2021/05/08 04:43:26;;;;;;;2.20;1.70;;;19.40;76.70;;;;;;4977825;28;95450;-56
2021/05/08 04:45:57;;;;;;;2.85;2.65;;;19.40;76.60;;;;;;4973300;28;95942;-51
2021/05/08 04:48:30;;;;;;;5.07;1.70;;;19.60;76.50;;;;;;4975959;28;96210;-52
2021/05/08 04:51:01;;;;;;;2.65;2.08;;;19.60;76.40;;;;;;4975662;28;95914;-57
2021/05/08 04:53:33;;;;;;;2.28;2.08;;;19.70;76.30;;;;;;4962815;28;95979;-54
2021/05/08 04:56:04;;;;;;;1.75;1.65;;;19.80;76.30;;;;;;4981120;28;95858;-55
2021/05/08 04:58:36;;;;;;;3.75;2.13;;;19.80;76.20;;;;;;4978592;28;95492;-56
2021/05/08 05:01:06;;;;;;;;;;;19.90;76.50;;;;;;4966122;28;95884;-53
2021/05/08 05:03:37;;;;;;;3.72;1.88;;;19.90;76.10;;;;;;4978984;28;95893;-51
2021/05/08 05:06:08;;;;;;;3.40;1.92;;;20.00;75.90;;;;;;4965005;28;95544;-58
2021/05/08 05:08:38;;;;;;;3.43;3.10;;;20.10;76.00;;;;;;4964583;28;95643;-49
2021/05/08 05:11:08;;;;;;;3.28;2.95;;;20.10;74.40;;;;;;4975745;28;96781;-51
2021/05/08 05:13:40;;;;;;;5.15;3.15;;;19.90;74.60;;;;;;4975452;28;97704;-52
2021/05/08 05:16:11;;;;;;;4.70;2.92;;;19.80;75.10;;;;;;4972106;28;96122;-57
2021/05/08 05:18:41;;;;;;;3.78;2.83;;;19.80;75.40;;;;;;4966098;28;95765;-49
2021/05/08 05:21:11;;;;;;;2.75;2.55;;;19.70;75.60;;;;;;4973090;28;95901;-53
2021/05/08 05:23:42;;;;;;;3.28;2.88;;;19.70;75.70;;;;;;4978966;28;99591;-55
2021/05/08 05:26:13;;;;;;;3.93;2.60;;;19.60;75.80;;;;;;4976123;28;95487;-56
2021/05/08 05:28:43;;;;;;;2.67;2.28;;;19.60;75.80;;;;;;4989497;28;95939;-54
2021/05/08 05:31:18;;;;;;;3.10;2.78;;;19.60;75.90;;;;;;4976505;28;95898;-52
2021/05/08 05:33:49;;;;;;;4.00;2.80;;;19.70;75.90;;;;;;4977894;28;95975;-56
2021/05/08 05:36:20;;;;;;;3.13;2.83;;;19.60;75.90;;;;;;4979226;28;95631;-52
2021/05/08 05:38:53;;;;;;;3.13;2.58;;;19.60;75.90;;;;;;4975474;28;96154;-56
2021/05/08 05:41:23;;;;;;;4.10;2.75;;;19.60;76.00;;;;;;4980232;28;95923;-55
2021/05/08 05:43:55;;;;;;;4.45;2.88;;;19.60;76.10;;;;;;4992816;28;98008;-55
2021/05/08 05:46:26;;;;;;;3.08;2.70;;;19.60;76.20;;;;;;4975176;28;95934;-55
2021/05/08 05:48:56;;;;;;;3.42;2.72;;;19.50;76.20;;;;;;4979917;28;96240;-54
2021/05/08 05:51:28;;;;;;;3.00;2.70;;;19.50;76.20;;;;;;4976549;28;95839;-54
2021/05/08 05:53:58;;;;;;;4.28;2.58;;;19.50;76.20;;;;;;4982788;28;95839;-55
2021/05/08 05:56:28;;;;;;;2.45;2.22;;;19.50;76.30;;;;;;4977275;28;95957;-55
2021/05/08 05:58:58;;;;;;;4.97;2.80;;;19.50;76.30;;;;;;4976637;28;95666;-54
2021/05/08 06:01:28;;;;;;;2.70;2.30;;;19.50;76.30;;;;;;4965210;28;97587;-52
2021/05/08 06:03:58;;;;;;;;;;;19.50;76.30;;;;;;4980941;28;95986;-55
2021/05/08 06:06:29;;;;;;;3.00;2.35;;;19.50;76.30;;;;;;4971994;28;95666;-54
2021/05/08 06:08:59;;;;;;;3.13;2.45;;;19.50;76.40;;;;;;4979202;28;96460;-52
2021/05/08 06:11:30;;;;;;;2.55;2.35;;;19.50;76.50;;;;;;4973056;28;95951;-54
2021/05/08 06:14:01;;;;;;;3.85;2.88;;;19.50;76.70;;;;;;4974032;28;95999;-52
2021/05/08 06:16:31;;;;;;;2.58;2.08;;;19.50;76.60;;;;;;4961404;28;95477;-54
2021/05/08 06:19:03;;;;;;;3.67;2.85;;;19.50;77.20;;;;;;4967715;28;97545;-55
2021/05/08 06:21:35;;;;;;;3.15;2.83;;;19.60;76.40;;;;;;4971121;28;95840;-56
2021/05/08 06:24:10;;;;;;;2.80;2.17;;;19.60;76.20;;;;;;4966186;28;95647;-55
2021/05/08 06:26:41;;;;;;;3.28;2.42;;;19.60;76.10;;;;;;4979359;28;95788;-56
2021/05/08 06:29:11;;;;;;;2.20;1.83;;;19.70;75.80;;;;;;4978020;28;96475;-55
2021/05/08 06:31:41;;;;;;;3.20;2.50;;;19.70;75.70;;;;;;4965499;28;97021;-57
2021/05/08 06:34:13;;;;;;;3.50;2.28;;;19.80;75.60;;;;;;4978171;28;95943;-53
2021/05/08 06:36:43;;;;;;;4.57;2.77;;;19.80;75.70;;;;;;4992241;28;95807;-53
2021/05/08 06:39:14;;;;;;;3.95;2.70;;;19.80;75.60;;;;;;4982053;28;95619;-56
2021/05/08 06:41:44;;;;;;;2.55;2.35;;;19.80;75.40;;;;;;4973609;28;104976;-49
2021/05/08 06:44:15;;;;;;;4.35;2.20;;;19.90;75.50;;;;;;4978791;28;95770;-56
2021/05/08 06:46:47;;;;;;;2.30;2.10;;;19.90;75.30;;;;;;4966884;28;96294;-53
2021/05/08 06:49:17;;;;;;;3.47;2.22;;;19.90;75.30;;;;;;4971566;28;95804;-56
2021/05/08 06:51:48;;;;;;;2.65;2.05;;;19.90;75.20;;;;;;4976445;28;96190;-54
2021/05/08 06:54:19;;;;;;;2.33;1.90;;;19.90;75.10;;;;;;4980580;28;95774;-55
2021/05/08 06:56:50;;;;;;;2.40;2.08;;;19.90;75.00;;;;;;4953442;28;95830;-56
2021/05/08 06:59:22;;;;;;;3.15;2.00;;;19.90;75.10;;;;;;4973281;28;95189;-52
2021/05/08 07:01:53;;;;;;;2.92;2.20;;;20.00;75.00;;;;;;4962761;28;96729;-58
2021/05/08 07:04:24;;;;;;;2.97;2.17;;;20.00;75.00;;;;;;4974626;28;95871;-54
2021/05/08 07:06:54;;;;;;;2.97;2.28;;;20.00;74.90;;;;;;4973035;28;95325;-52
2021/05/08 07:09:25;;;;;;;2.55;2.08;;;19.90;74.90;;;;;;4977087;28;96989;-53
2021/05/08 07:11:56;;;;;;;3.60;2.33;;;20.00;74.90;;;;;;4980609;28;96000;-55
2021/05/08 07:14:27;;;;;;;2.13;1.92;;;20.00;74.90;;;;;;4981293;28;98128;-53
2021/05/08 07:16:59;;;;;;;3.50;1.75;;;20.00;74.90;;;;;;4964600;28;99925;-55
2021/05/08 07:19:30;;;;;;;3.07;1.73;;;20.00;74.80;;;;;;4970809;28;95850;-49
2021/05/08 07:22:04;;;;;;;2.25;1.95;;;20.10;74.80;;;;;;4960196;28;96631;-53
2021/05/08 07:24:36;;;;;;;2.67;1.67;;;20.10;74.80;;;;;;4965736;28;95831;-55
2021/05/08 07:27:07;;;;;;;3.85;1.92;;;20.00;74.70;;;;;;4976853;28;95582;-57
2021/05/08 07:29:36;;;;;;;1.95;1.80;;;20.10;74.70;;;;;;4971706;28;95620;-54
2021/05/08 07:32:06;;;;;;;2.10;1.90;;;20.10;74.60;;;;;;4975708;28;96854;-52
2021/05/08 07:34:38;;;;;;;4.38;2.42;;;20.00;75.10;;;;;;4977392;28;95907;-54
2021/05/08 07:37:08;;;;;;;6.03;2.60;;;19.90;75.40;;;;;;4971198;28;95783;-54
2021/05/08 07:39:38;;;;;;;3.00;2.30;;;19.80;75.60;;;;;;4961616;28;97310;-53
2021/05/08 07:42:09;;;;;;;4.20;2.63;;;19.80;75.80;;;;;;4967145;28;95707;-56
2021/05/08 07:44:39;;;;;;;1.98;1.77;;;19.80;76.00;;;;;;4978468;28;96666;-54
2021/05/08 07:47:13;;;;;;;5.40;2.85;;;19.80;76.10;;;;;;4968847;28;95908;-54
2021/05/08 07:49:43;;;;;;;2.50;2.08;;;19.70;76.10;;;;;;4977726;28;95572;-54
2021/05/08 07:52:14;;;;;;;3.13;2.33;;;19.80;76.10;;;;;;4968027;28;95923;-52
2021/05/08 07:54:44;;;;;;;3.05;1.90;;;19.70;76.10;;;;;;4960953;28;95727;-53
2021/05/08 07:57:15;;;;;;;3.28;2.55;;;19.70;75.90;;;;;;4968008;28;97153;-54
2021/05/08 07:59:46;;;;;;;3.08;2.70;;;19.70;76.20;;;;;;4962375;28;95985;-55
2021/05/08 08:02:17;;;;;;;2.72;2.25;;;19.60;76.10;;;;;;4970463;28;96130;-56
2021/05/08 08:04:49;;;;;;;4.03;2.22;;;19.60;76.20;;;;;;4975989;28;96342;-53
2021/05/08 08:07:18;;;;;;;2.50;1.95;;;19.60;76.20;;;;;;4979773;28;95198;-53
2021/05/08 08:09:47;;;;;;;3.08;2.20;;;19.60;76.40;;;;;;4974885;28;104640;-53
2021/05/08 08:12:18;;;;;;;3.28;2.25;;;19.60;76.50;;;;;;4967196;28;96380;-52
2021/05/08 08:14:51;;;;;;;2.80;1.95;;;19.50;76.40;;;;;;4967949;28;95969;-51
2021/05/08 08:17:20;;;;;;;;;;;19.50;76.60;;;;;;4968396;28;95832;-51
2021/05/08 08:19:51;;;;;;;2.83;1.95;;;19.60;76.40;;;;;;4968509;28;95615;-51
2021/05/08 08:22:22;;;;;;;2.22;1.95;;;19.60;76.20;;;;;;4970544;28;103085;-50
2021/05/08 08:24:56;;;;;;;3.40;1.92;;;19.50;76.30;;;;;;4978785;28;95949;-55
2021/05/08 08:27:26;;;;;;;2.22;1.83;;;19.50;76.20;;;;;;4982078;28;95432;-51
2021/05/08 08:29:57;;;;;;;5.45;1.92;;;19.50;76.30;;;;;;4967453;28;95486;-52
2021/05/08 08:32:28;;;;;;;4.07;1.90;;;19.40;76.30;;;;;;4965028;28;98112;-53
2021/05/08 08:35:03;;;;;;;4.05;2.47;;;19.40;76.40;;;;;;4978329;28;95730;-52
2021/05/08 08:37:33;;;;;;;4.45;1.90;;;19.50;76.40;;;;;;4973180;28;95730;-50
2021/05/08 08:40:06;;;;;;;3.13;2.38;;;19.40;76.40;;;;;;4975650;28;96406;-52
2021/05/08 08:42:37;;;;;;;1.95;1.83;;;19.40;76.50;;;;;;4975830;28;96516;-49
2021/05/08 08:45:08;;;;;;;4.35;2.65;;;19.50;76.60;;;;;;4972550;28;95993;-53
2021/05/08 08:47:38;;;;;;;3.88;2.20;;;19.40;76.60;;;;;;4981213;28;96816;-52
2021/05/08 08:50:12;;;;;;;2.33;1.70;;;19.40;76.70;;;;;;4980503;28;96016;-50
2021/05/08 08:52:43;;;;;;;2.05;1.83;;;19.40;76.90;;;;;;4973262;28;95737;-49
2021/05/08 08:55:14;;;;;;;3.13;2.47;;;19.40;76.90;;;;;;4973794;28;95954;-52
2021/05/08 08:57:45;;;;;;;3.33;2.25;;;19.40;76.90;;;;;;4958431;28;96022;-53
2021/05/08 09:00:16;;;;;;;2.65;2.25;;;19.40;77.10;;;;;;4961519;28;95407;-54
2021/05/08 09:02:51;;;;;;;2.45;2.22;;;19.40;77.10;;;;;;4956950;28;105530;-53
2021/05/08 09:05:23;;;;;;;3.00;2.70;;;19.40;77.10;;;;;;4978783;28;95934;-53
2021/05/08 09:07:59;;;;;;;4.13;1.95;;;19.30;77.20;;;;;;4983954;28;95658;-51
2021/05/08 09:10:33;;;;;;;2.40;2.20;;;19.30;77.20;;;;;;4966932;28;95709;-51
2021/05/08 09:13:05;;;;;;;5.07;2.72;;;19.30;77.10;;;;;;4962812;28;101935;-50
2021/05/08 09:15:41;;;;;;;3.67;2.28;;;19.30;77.20;;;;;;4963390;28;95768;-54
2021/05/08 09:18:35;;;;;;;3.75;2.50;;;19.30;77.20;;;;;;4966238;28;95882;-52
2021/05/08 09:21:09;;;;;;;2.78;2.20;;;19.30;77.30;;;;;;4972308;28;97869;-53
2021/05/08 09:23:41;;;;;;;2.35;1.98;;;19.30;77.20;;;;;;4966193;28;102301;-53
2021/05/08 09:26:14;;;;;;;3.70;1.90;;;19.20;77.20;;;;;;4974308;28;95375;-52
2021/05/08 09:28:53;;;;;;;2.45;1.95;;;19.20;77.80;;;;;;4965353;28;103064;-50
2021/05/08 09:31:23;;;;;;;3.35;2.38;;;19.20;77.40;;;;;;4965801;28;96136;-53
2021/05/08 09:33:57;;;;;;;3.20;2.23;;;19.20;77.10;;;;;;4967688;28;96450;-52
2021/05/08 09:36:28;;;;;;;3.88;2.35;;;19.20;77.10;;;;;;4962815;28;95831;-53
2021/05/08 09:38:59;;;;;;;3.13;1.75;;;19.20;77.20;;;;;;4976326;28;95795;-51
2021/05/08 09:41:46;;;;;;;2.67;2.25;;;19.20;77.10;;;;;;4977266;28;95782;-51
2021/05/08 09:44:17;;;;;;;2.75;2.55;;;19.10;77.10;;;;;;4973558;28;95907;-53
2021/05/08 09:46:48;;;;;;;4.20;2.17;;;19.20;77.10;;;;;;4952647;28;98207;-51
2021/05/08 09:49:22;;;;;;;2.50;2.03;;;19.20;77.20;;;;;;4976208;28;97684;-53
2021/05/08 09:52:02;;;;;;;2.22;2.03;;;19.20;77.00;;;;;;4975824;28;95709;-51
2021/05/08 09:54:32;;;;;;;3.15;2.05;;;19.10;77.10;;;;;;4964517;28;96520;-50
2021/05/08 09:57:02;;;;;;;2.15;1.80;;;19.00;77.40;;;;;;4974855;28;95885;-51
2021/05/08 09:59:34;;;;;;;4.78;2.17;;;19.00;77.60;;;;;;4974328;28;95698;-52
2021/05/08 10:02:05;;;;;;;3.38;2.00;;;18.90;77.60;;;;;;4972674;28;95691;-52
2021/05/08 10:05:05;;;;;;;4.30;2.55;;;18.90;77.90;;;;;;4979401;28;95860;-54
2021/05/08 10:07:39;;;;;;;2.53;1.80;;;18.80;78.00;;;;;;4973710;28;95905;-55
2021/05/08 10:10:09;;;;;;;4.15;2.38;;;18.80;78.10;;;;;;4967755;28;95358;-51
2021/05/08 10:12:40;;;;;;;3.65;1.55;;;18.80;78.20;;;;;;4975485;28;96160;-52
2021/05/08 10:15:12;;;;;;;1.65;1.40;;;18.80;78.20;;;;;;4966991;28;96379;-53
2021/05/08 10:17:47;;;;;;;2.35;2.15;;;18.80;78.20;;;;;;4971770;28;98700;-54
2021/05/08 10:20:21;;;;;;;2.22;1.77;;;18.70;78.20;;;;;;4970214;28;95758;-55
2021/05/08 10:22:57;;;;;;;4.03;2.22;;;18.70;78.30;;;;;;4972260;28;95793;-54
2021/05/08 10:25:28;;;;;;;3.33;2.13;;;18.60;78.30;;;;;;4969862;28;96961;-55
2021/05/08 10:27:59;;;;;;;4.15;2.33;;;18.70;78.40;;;;;;4968350;28;95742;-55
2021/05/08 10:30:36;;;;;;;2.42;1.90;;;18.60;78.50;;;;;;4945801;28;95418;-50
2021/05/08 10:33:09;;;;;;;3.25;2.42;;;18.60;78.70;;;;;;4975530;28;95774;-54
2021/05/08 10:35:46;;;;;;;2.10;1.90;;;18.60;78.60;;;;;;4970084;28;96121;-54
2021/05/08 10:38:31;;;;;;;4.30;1.90;;;18.60;78.70;;;;;;4984138;28;95326;-54
2021/05/08 10:41:05;;;;;;;3.80;2.40;;;18.50;78.80;;;;;;4979410;28;95197;-53
2021/05/08 10:43:41;;;;;;;3.38;2.10;;;18.50;78.70;;;;;;4978444;28;95518;-55
2021/05/08 10:46:14;;;;;;;3.47;2.25;;;18.50;78.80;;;;;;4965967;28;98695;-55
2021/05/08 10:49:09;;;;;;;5.07;2.63;;;18.50;78.70;;;;;;4973206;28;95816;-55
2021/05/08 10:51:58;;;;;;;3.22;2.28;;;18.50;78.80;;;;;;4975875;28;95956;-55
2021/05/08 10:57:22;;;;;;;6.97;2.95;;;18.50;78.80;;;;;;4978534;28;95851;-51
2021/05/08 11:00:07;;;;;;;3.13;2.10;;;18.40;78.80;;;;;;4968794;28;96182;-52
2021/05/08 11:02:44;;;;;;;5.03;2.63;;;18.40;78.80;;;;;;4958125;28;95964;-53
2021/05/08 11:05:26;;;;;;;4.05;2.40;;;18.40;78.80;;;;;;4968966;28;95831;-55
2021/05/08 11:07:55;;;;;;;2.55;1.98;;;18.40;78.80;;;;;;4981424;28;95946;-55
2021/05/08 11:10:34;;;;;;;3.58;2.20;;;18.40;78.80;;;;;;4966280;28;96505;-51
2021/05/08 11:13:14;;;;;;;5.15;2.55;;;18.40;78.80;;;;;;4970137;28;96080;-55
2021/05/08 11:15:52;;;;;;;2.65;1.85;;;18.40;78.80;;;;;;4964686;28;95811;-55
2021/05/08 11:18:32;;;;;;;3.88;2.33;;;18.30;78.70;;;;;;4967688;28;95886;-51
2021/05/08 11:21:05;;;;;;;3.03;2.35;;;18.30;78.80;;;;;;4972103;28;96644;-54
2021/05/08 11:24:02;;;;;;;2.97;2.13;;;18.30;78.80;;;;;;4971810;28;95832;-55
2021/05/08 11:26:39;;;;;;;3.67;2.00;;;18.30;78.90;;;;;;4974587;28;95370;-55
2021/05/08 11:29:21;;;;;;;2.45;2.10;;;18.30;78.90;;;;;;4968833;28;96126;-54
2021/05/08 11:31:55;;;;;;;2.85;1.77;;;18.30;78.90;;;;;;4969550;28;95844;-53
2021/05/08 11:34:31;;;;;;;3.13;2.28;;;18.30;78.90;;;;;;4966299;28;95296;-52
2021/05/08 11:37:10;;;;;;;4.68;3.03;;;18.30;78.90;;;;;;4973379;28;95706;-55
2021/05/08 11:39:41;;;;;;;5.57;3.00;;;18.30;78.90;;;;;;4967878;28;96963;-54
2021/05/08 11:42:12;;;;;;;2.72;2.15;;;18.20;78.80;;;;;;4968273;28;95775;-54
2021/05/08 11:44:45;;;;;;;3.92;2.55;;;18.20;78.90;;;;;;4965088;28;95771;-52
2021/05/08 11:47:30;;;;;;;2.75;2.17;;;18.20;78.90;;;;;;4963149;28;95286;-56
2021/05/08 11:50:06;;;;;;;5.68;2.38;;;18.20;79.00;;;;;;4965288;28;96489;-55
2021/05/08 11:52:43;;;;;;;2.60;2.20;;;18.20;79.00;;;;;;4966049;28;95661;-54
2021/05/08 11:55:23;;;;;;;2.88;2.05;;;18.20;79.00;;;;;;4980486;28;95723;-54
2021/05/08 11:57:57;;;;;;;3.55;2.22;;;18.10;79.00;;;;;;4988091;28;95438;-54
2021/05/08 12:00:32;;;;;;;3.75;2.22;;;18.10;78.90;;;;;;4971012;28;96243;-54
2021/05/08 12:03:15;;;;;;;4.35;2.22;;;18.20;79.00;;;;;;4966547;28;101779;-51
2021/05/08 12:05:50;;;;;;;4.50;2.25;;;18.10;78.90;;;;;;4965729;28;95710;-53
2021/05/08 12:08:27;;;;;;;4.00;2.78;;;18.10;79.00;;;;;;4966157;28;96096;-52
2021/05/08 12:10:58;;;;;;;3.20;2.30;;;18.10;78.90;;;;;;4981873;28;95965;-53
2021/05/08 12:13:31;;;;;;;3.80;2.08;;;18.10;79.00;;;;;;4972950;28;95899;-55
2021/05/08 12:16:03;;;;;;;5.82;2.55;;;18.10;79.00;;;;;;4959487;28;95473;-54
2021/05/08 12:18:35;;;;;;;4.00;2.33;;;18.10;79.10;;;;;;4967799;28;95767;-54
2021/05/08 12:21:08;;;;;;;5.40;2.88;;;18.10;79.00;;;;;;4962107;28;96219;-54
2021/05/08 12:23:39;;;;;;;3.13;2.40;;;18.00;78.90;;;;;;4965588;28;95694;-51
2021/05/08 12:26:11;;;;;;;4.40;2.80;;;18.00;79.00;;;;;;4965347;28;95783;-52
2021/05/08 12:28:48;;;;;;;3.67;2.70;;;18.00;79.00;;;;;;4968563;28;95546;-51
2021/05/08 12:31:35;;;;;;;6.78;2.67;;;18.00;79.00;;;;;;4969640;28;96280;-52
2021/05/08 12:34:09;;;;;;;4.07;2.63;;;18.00;79.70;;;;;;4950266;28;96049;-54
2021/05/08 12:36:41;;;;;;;4.35;2.67;;;18.00;79.10;;;;;;4968216;28;96499;-52
2021/05/08 12:39:25;;;;;;;4.72;2.80;;;18.00;79.00;;;;;;4968858;28;96019;-53
2021/05/08 12:42:01;;;;;;;3.35;2.22;;;18.00;79.10;;;;;;4964933;28;95943;-54
2021/05/08 12:44:33;;;;;;;3.58;2.25;;;18.00;79.10;;;;;;4964805;28;96103;-54
2021/05/08 12:47:23;;;;;;;4.97;2.72;;;18.00;79.20;;;;;;4962974;28;95544;-53
2021/05/08 12:50:07;;;;;;;3.10;2.40;;;18.00;79.10;;;;;;4973296;28;96100;-51
2021/05/08 12:52:42;;;;;;;3.10;2.00;;;18.00;79.20;;;;;;4970550;28;95807;-51
2021/05/08 12:55:29;;;;;;;3.67;2.58;;;18.00;79.20;;;;;;4970623;28;98320;-53
2021/05/08 12:58:17;;;;;;;2.75;2.13;;;17.90;79.10;;;;;;4964838;28;95887;-54
2021/05/08 13:00:51;;;;;;;3.40;2.40;;;17.90;79.10;;;;;;4963050;28;95817;-51
2021/05/08 13:03:39;;;;;;;3.35;2.70;;;17.90;79.20;;;;;;4966822;28;95704;-53
2021/05/08 13:06:23;;;;;;;4.68;2.33;;;17.90;79.10;;;;;;4969841;28;95434;-53
2021/05/08 13:08:55;;;;;;;3.13;2.20;;;17.90;79.20;;;;;;4969486;28;95524;-52
2021/05/08 13:11:45;;;;;;;3.03;2.65;;;17.90;79.20;;;;;;4966140;28;95792;-55
2021/05/08 13:14:27;;;;;;;3.72;2.05;;;17.90;79.20;;;;;;4965815;28;95922;-54
2021/05/08 13:16:59;;;;;;;3.90;2.63;;;17.80;79.30;;;;;;4959910;28;95777;-53
2021/05/08 13:19:30;;;;;;;5.53;2.53;;;17.80;79.30;;;;;;4967517;28;98424;-52